Temp: 5.6°C   Baro: 1006.1mb
  Wind: 6.0mph   Dir: NNW (331°)
  Rain: 4.2mm (0.0mm/hr)
  Solar: 0W/m2  Hum: 87%

Historic data

Bath Spa Weather Station Historical Data
Daily Summary for September 8, 2019 Units:  English    Metric   Both
Daily Weekly Monthly Yearly Custom
  High: Low: Average:
Temperature: 53.8 °F 42.7 °F 48.1 °F
Dew Point: 51.7 °F 38.4 °F 43.4 °F
Humidity: 93% 72% 84%
Wind Speed: 18mph 3.3mph 10.2mph
Wind Gust: 35mph - -
Wind- - WSW
Pressure: 29.61 in 29.24 in -
Precipitation: 0.52 in    
Historical Graphs
 
 
Tabular Data for September 8, 2019
Time Temperature Dew Point Pressure Wind Wind Speed Wind Gust Humidity Rainfall Rate (Hourly) solar
00:04 51.3 °F 48.6 °F 29.61 in South 11 mph 21 mph 90.6% 0.05 in 0 W/m2
00:09 51.3 °F 48.7 °F 29.61 in SSW 10.6 mph 22 mph 91% 0.06 in 0 W/m2
00:14 51.3 °F 48.8 °F 29.61 in SSW 10.8 mph 21 mph 91% 0.06 in 0 W/m2
00:19 51.4 °F 48.9 °F 29.61 in SSW 15.4 mph 22 mph 91% 0.06 in 0 W/m2
00:24 51.4 °F 48.9 °F 29.61 in SSW 13.3 mph 23 mph 91% 0.07 in 0 W/m2
00:29 51.4 °F 48.9 °F 29.61 in SSW 14.4 mph 22 mph 91% 0.08 in 0 W/m2
00:34 51.4 °F 48.9 °F 29.61 in SSW 8.9 mph 22 mph 91% 0.09 in 0 W/m2
00:39 51.5 °F 49 °F 29.61 in SSW 14 mph 29 mph 91% 0.09 in 0 W/m2
00:44 51.6 °F 49.1 °F 29.61 in SSW 8.6 mph 21 mph 91.2% 0.10 in 0 W/m2
00:49 51.5 °F 49.3 °F 29.60 in South 6.9 mph 15 mph 92% 0.11 in 0 W/m2
00:54 51.6 °F 49.5 °F 29.60 in South 13.5 mph 20 mph 92% 0.11 in 0 W/m2
00:59 51.6 °F 49.5 °F 29.59 in SSW 8.6 mph 13 mph 92% 0.11 in 0 W/m2
01:04 51.7 °F 49.5 °F 29.59 in SSW 10.6 mph 19 mph 92% 0.11 in 0 W/m2
01:09 51.9 °F 49.6 °F 29.58 in SW 11.2 mph 21 mph 92% 0.12 in 0 W/m2
01:14 52.1 °F 49.7 °F 29.59 in SW 9.4 mph 19 mph 92% 0.13 in 0 W/m2
01:19 52.2 °F 49.8 °F 29.59 in SSW 8.6 mph 19 mph 92% 0.13 in 0 W/m2
01:24 52.3 °F 50 °F 29.57 in SW 13.2 mph 21 mph 92% 0.13 in 0 W/m2
01:29 52.5 °F 50.2 °F 29.57 in SW 9.8 mph 20 mph 92% 0.11 in 0 W/m2
01:34 52.4 °F 50.1 °F 29.57 in SSW 8.8 mph 20 mph 92% 0.11 in 0 W/m2
01:39 52.5 °F 50.2 °F 29.56 in SSW 8.6 mph 16 mph 92% 0.10 in 0 W/m2
01:44 52.5 °F 50.2 °F 29.56 in SSW 8.2 mph 17 mph 92% 0.09 in 0 W/m2
01:49 52.5 °F 50.2 °F 29.56 in SSW 13.3 mph 22 mph 92% 0.08 in 0 W/m2
01:54 52.8 °F 50.5 °F 29.55 in SSW 9.2 mph 20 mph 92% 0.08 in 0 W/m2
01:59 52.7 °F 50.4 °F 29.55 in South 7.8 mph 20 mph 92% 0.08 in 0 W/m2
02:04 52.8 °F 50.4 °F 29.55 in SW 12 mph 23 mph 92% 0.06 in 0 W/m2
02:09 52.9 °F 50.5 °F 29.55 in SW 7.6 mph 23 mph 92% 0.05 in 0 W/m2
02:14 53 °F 50.6 °F 29.54 in SSW 9.4 mph 22 mph 92% 0.05 in 0 W/m2
02:19 52.9 °F 50.5 °F 29.54 in WSW 7.8 mph 18 mph 92% 0.04 in 0 W/m2
02:24 52.9 °F 50.5 °F 29.54 in SW 8.8 mph 17 mph 92% 0.03 in 0 W/m2
02:29 52.9 °F 50.5 °F 29.54 in SW 9 mph 14 mph 92% 0.03 in 0 W/m2
02:34 52.9 °F 50.8 °F 29.54 in SW 7.6 mph 17 mph 92.8% 0.03 in 0 W/m2
02:39 53 °F 51 °F 29.53 in SW 10 mph 19 mph 93% 0.02 in 0 W/m2
02:44 53.1 °F 51.1 °F 29.53 in SSW 10.7 mph 19 mph 93% 0.02 in 0 W/m2
02:49 53.1 °F 51.2 °F 29.52 in SSW 13.4 mph 23 mph 93% 0.01 in 0 W/m2
02:54 53.2 °F 51.3 °F 29.52 in SSW 9 mph 23 mph 93% 0.01 in 0 W/m2
02:58 53.2 °F 51.3 °F 29.52 in SW 10.5 mph 17 mph 93% 0.00 in 0 W/m2
03:04 53.3 °F 51.3 °F 29.53 in SW 12.6 mph 19 mph 93% 0.00 in 0 W/m2
03:09 53.5 °F 51.5 °F 29.54 in West 17.4 mph 35 mph 93% 0.01 in 0 W/m2
03:14 53.8 °F 51.7 °F 29.53 in WSW 12.4 mph 29 mph 92.6% 0.01 in 0 W/m2
03:19 53.8 °F 51.4 °F 29.52 in WSW 8 mph 21 mph 92% 0.01 in 0 W/m2
03:24 53.7 °F 51.2 °F 29.53 in West 7.2 mph 18 mph 91% 0.01 in 0 W/m2
03:29 53.6 °F 50.8 °F 29.52 in WSW 14.2 mph 27 mph 90.2% 0.01 in 0 W/m2
03:34 53.4 °F 50.3 °F 29.52 in West 7.2 mph 27 mph 89.2% 0.01 in 0 W/m2
03:38 53.2 °F 49.8 °F 29.52 in West 5.5 mph 19 mph 88.3% 0.01 in 0 W/m2
03:44 53 °F 49.5 °F 29.53 in West 8.6 mph 19 mph 88% 0.01 in 0 W/m2
03:49 52.9 °F 49.3 °F 29.53 in West 13.8 mph 23 mph 87.6% 0.01 in 0 W/m2
03:54 52.6 °F 48.6 °F 29.52 in WSW 12.8 mph 26 mph 86.2% 0.01 in 0 W/m2
03:59 52.4 °F 48.1 °F 29.53 in West 11.6 mph 24 mph 85% 0.01 in 0 W/m2
04:04 52.3 °F 47.6 °F 29.53 in West 11.7 mph 21 mph 84% 0.01 in 0 W/m2
04:09 52.2 °F 47.5 °F 29.53 in West 7.8 mph 26 mph 84% 0.00 in 0 W/m2
04:14 52 °F 47.3 °F 29.53 in West 11 mph 20 mph 84% 0.00 in 0 W/m2
04:19 51.8 °F 47.1 °F 29.53 in West 11.1 mph 26 mph 84% 0.00 in 0 W/m2
04:24 51.6 °F 46.9 °F 29.53 in WSW 8.4 mph 23 mph 84% 0.00 in 0 W/m2
04:29 51.6 °F 46.9 °F 29.53 in West 18 mph 28 mph 84% 0.00 in 0 W/m2
04:34 51.6 °F 46.9 °F 29.53 in West 10 mph 26 mph 84% 0.00 in 0 W/m2
04:39 51.4 °F 46.8 °F 29.53 in West 11.4 mph 18 mph 84% 0.00 in 0 W/m2
04:44 51.3 °F 46.8 °F 29.54 in West 10.2 mph 22 mph 84.4% 0.00 in 0 W/m2
04:49 51.3 °F 46.8 °F 29.54 in West 13.4 mph 25 mph 84.8% 0.00 in 0 W/m2
04:54 51.3 °F 46.6 °F 29.54 in West 16.2 mph 23 mph 84% 0.00 in 0 W/m2
04:59 51.3 °F 46.4 °F 29.54 in West 11.4 mph 25 mph 83.4% 0.00 in 0 W/m2
05:04 51.4 °F 46.3 °F 29.54 in West 15.4 mph 30 mph 83% 0.00 in 0 W/m2
05:09 51.3 °F 46.3 °F 29.54 in West 8.2 mph 23 mph 83% 0.00 in 0 W/m2
05:14 51.3 °F 46.4 °F 29.54 in West 12.5 mph 22 mph 83.4% 0.00 in 0 W/m2
05:19 51.3 °F 46.6 °F 29.54 in WNW 10.4 mph 21 mph 84% 0.00 in 0 W/m2
05:24 51.3 °F 46.6 °F 29.54 in West 12.8 mph 22 mph 84% 0.00 in 0 W/m2
05:29 51.3 °F 46.7 °F 29.54 in West 15 mph 24 mph 84.4% 0.00 in 0 W/m2
05:34 51.1 °F 46.4 °F 29.54 in West 15 mph 29 mph 84% 0.00 in 0 W/m2
05:39 51.1 °F 46.1 °F 29.54 in West 9.4 mph 29 mph 83.2% 0.00 in 0 W/m2
05:44 50.8 °F 45.8 °F 29.54 in West 13 mph 20 mph 83% 0.00 in 0 W/m2
05:49 50.7 °F 45.9 °F 29.55 in West 12.6 mph 22 mph 83.6% 0.00 in 0 W/m2
05:54 50.7 °F 45.7 °F 29.55 in West 7.5 mph 22 mph 83% 0.00 in 0 W/m2
05:59 50.6 °F 46 °F 29.55 in WSW 15.2 mph 23 mph 84% 0.00 in 0 W/m2
06:04 50.7 °F 46 °F 29.55 in West 11 mph 24 mph 84% 0.00 in 0 W/m2
06:09 50.8 °F 46.1 °F 29.55 in West 12.6 mph 22 mph 84% 0.00 in 0 W/m2
06:14 50.7 °F 45.9 °F 29.55 in West 10.1 mph 18 mph 83.8% 0.00 in 0 W/m2
06:19 50.7 °F 46 °F 29.55 in West 13.8 mph 21 mph 84% 0.00 in 0 W/m2
06:24 50.5 °F 45.7 °F 29.56 in West 15.6 mph 23 mph 83.4% 0.00 in 0 W/m2
06:29 50.5 °F 45.4 °F 29.56 in West 12 mph 25 mph 82.6% 0.00 in 0 W/m2
06:34 50.4 °F 45.2 °F 29.56 in West 10.4 mph 22 mph 82% 0.00 in 0 W/m2
06:38 50.3 °F 45.1 °F 29.56 in West 10.3 mph 22 mph 82% 0.00 in 0 W/m2
06:44 50.3 °F 45.1 °F 29.57 in WSW 10 mph 21 mph 82.4% 0.00 in 0 W/m2
06:49 50.1 °F 45 °F 29.57 in West 10.1 mph 18 mph 82.6% 0.00 in 0 W/m2
06:54 50.1 °F 44.9 °F 29.57 in West 14.8 mph 19 mph 82% 0.00 in 0 W/m2
06:58 50 °F 44.5 °F 29.57 in West 13.8 mph 23 mph 81.3% 0.00 in 0 W/m2
07:04 50 °F 44.4 °F 29.57 in West 12.6 mph 21 mph 81% 0.00 in 0 W/m2
07:09 49.9 °F 44.3 °F 29.57 in West 7.6 mph 20 mph 81% 0.00 in 0 W/m2
07:14 49.8 °F 44.4 °F 29.57 in West 9.4 mph 20 mph 81.6% 0.00 in 0 W/m2
07:19 49.8 °F 44.6 °F 29.57 in WSW 10.3 mph 17 mph 82% 0.00 in 0 W/m2
07:24 49.6 °F 44.4 °F 29.57 in West 10 mph 19 mph 82% 0.00 in 0 W/m2
07:29 49.6 °F 44.4 °F 29.57 in WSW 9.8 mph 17 mph 82% 0.00 in 0 W/m2
07:34 49.5 °F 44.2 °F 29.57 in WSW 8.8 mph 17 mph 82% 0.00 in 0 W/m2
07:39 49.5 °F 44.1 °F 29.58 in West 11.7 mph 21 mph 81.8% 0.00 in 0 W/m2
07:44 49.5 °F 44 °F 29.58 in West 7.9 mph 21 mph 81% 0.00 in 0 W/m2
07:49 49.5 °F 43.9 °F 29.58 in West 9.3 mph 19 mph 81% 0.00 in 0 W/m2
07:54 49.4 °F 43.4 °F 29.58 in WSW 7.6 mph 15 mph 80% 0.00 in 0 W/m2
07:59 49.3 °F 43.3 °F 29.58 in West 11 mph 19 mph 80% 0.00 in 0 W/m2
08:04 49.3 °F 43.3 °F 29.58 in WSW 9.5 mph 19 mph 80% 0.00 in 0 W/m2
08:09 49.3 °F 43.3 °F 29.58 in WSW 11.6 mph 19 mph 80% 0.00 in 5 W/m2
08:14 49.3 °F 43.3 °F 29.58 in West 7.4 mph 16 mph 80% 0.00 in 7 W/m2
08:19 49.2 °F 43.2 °F 29.58 in WSW 7.6 mph 14 mph 80% 0.00 in 9 W/m2
08:24 49.3 °F 43.3 °F 29.58 in West 8.8 mph 13 mph 80% 0.00 in 19 W/m2
08:29 49.3 °F 43.3 °F 29.58 in WSW 7.8 mph 14 mph 80% 0.00 in 39 W/m2
08:34 49.4 °F 43.4 °F 29.58 in West 13.6 mph 26 mph 80% 0.00 in 16 W/m2
08:39 49.4 °F 43.4 °F 29.58 in WSW 11.7 mph 26 mph 80% 0.00 in 12 W/m2
08:44 49 °F 42.7 °F 29.59 in West 11.2 mph 19 mph 79% 0.00 in 14 W/m2
08:49 48.8 °F 42.5 °F 29.58 in West 8.6 mph 22 mph 79% 0.00 in 32 W/m2
08:54 48.7 °F 42.7 °F 29.58 in WSW 7.8 mph 15 mph 79.8% 0.00 in 67 W/m2
08:59 48.7 °F 42.9 °F 29.58 in WSW 6.3 mph 15 mph 80.2% 0.00 in 67 W/m2
09:04 48.9 °F 43.3 °F 29.58 in West 6.8 mph 16 mph 81% 0.00 in 70 W/m2
09:09 49.3 °F 44 °F 29.58 in WSW 4.7 mph 14 mph 81.8% 0.00 in 35 W/m2
09:14 49.3 °F 44.1 °F 29.59 in WSW 13.3 mph 23 mph 82% 0.00 in 47 W/m2
09:19 49.5 °F 43.7 °F 29.59 in WSW 9.3 mph 18 mph 80.4% 0.00 in 53 W/m2
09:24 49.5 °F 42.9 °F 29.59 in WSW 8.5 mph 21 mph 78.3% 0.00 in 49 W/m2
09:29 49.3 °F 42.2 °F 29.59 in West 16.6 mph 27 mph 76.2% 0.00 in 69 W/m2
09:34 49.2 °F 41.6 °F 29.59 in West 12.4 mph 27 mph 75% 0.00 in 132 W/m2
09:39 49.1 °F 41.7 °F 29.59 in WSW 14.9 mph 30 mph 75.6% 0.00 in 83 W/m2
09:44 48.8 °F 41.7 °F 29.59 in WSW 12.2 mph 28 mph 76.4% 0.00 in 70 W/m2
09:49 48.4 °F 41.5 °F 29.59 in WSW 13.8 mph 23 mph 77% 0.00 in 93 W/m2
09:54 48.2 °F 41.4 °F 29.60 in WSW 12.7 mph 22 mph 77% 0.00 in 84 W/m2
09:59 47.9 °F 41.1 °F 29.59 in WSW 7.6 mph 16 mph 77% 0.00 in 47 W/m2
10:03 47.8 °F 41 °F 29.59 in West 9.5 mph 18 mph 77% 0.00 in 58 W/m2
10:09 48 °F 41.2 °F 29.59 in WSW 11.6 mph 20 mph 77% 0.00 in 70 W/m2
10:14 48.3 °F 41.5 °F 29.59 in West 11.1 mph 18 mph 77% 0.00 in 81 W/m2
10:19 48.5 °F 41.6 °F 29.59 in WSW 6.8 mph 16 mph 77% 0.00 in 83 W/m2
10:24 48.6 °F 41.7 °F 29.58 in West 8.4 mph 16 mph 77% 0.00 in 91 W/m2
10:29 48.8 °F 41.6 °F 29.59 in WSW 7.2 mph 16 mph 76.2% 0.00 in 151 W/m2
10:34 49.3 °F 42 °F 29.58 in WSW 7.9 mph 18 mph 75.8% 0.00 in 179 W/m2
10:39 49.5 °F 41.9 °F 29.58 in WSW 11.8 mph 19 mph 75% 0.00 in 162 W/m2
10:44 49.6 °F 42.2 °F 29.59 in West 8.8 mph 19 mph 75.2% 0.00 in 171 W/m2
10:49 49.8 °F 42.6 °F 29.58 in WSW 7 mph 18 mph 76% 0.00 in 172 W/m2
10:54 50 °F 42.9 °F 29.58 in WSW 10.8 mph 19 mph 76.4% 0.00 in 220 W/m2
10:59 50.4 °F 43 °F 29.58 in West 14.6 mph 27 mph 75.6% 0.00 in 223 W/m2
11:04 50.5 °F 43 °F 29.58 in WSW 10.8 mph 19 mph 75% 0.00 in 220 W/m2
11:09 50.5 °F 42.8 °F 29.58 in WSW 14 mph 23 mph 74.6% 0.00 in 125 W/m2
11:14 50.2 °F 42.6 °F 29.58 in WSW 12 mph 23 mph 75% 0.00 in 120 W/m2
11:19 49.8 °F 42.3 °F 29.58 in WSW 10 mph 22 mph 75% 0.00 in 104 W/m2
11:24 49.8 °F 42.3 °F 29.57 in WSW 9.6 mph 20 mph 75% 0.00 in 118 W/m2
11:29 49.9 °F 42.6 °F 29.57 in WSW 3.9 mph 14 mph 75.6% 0.00 in 178 W/m2
11:33 50 °F 42.8 °F 29.57 in WSW 13.3 mph 20 mph 76% 0.00 in 83 W/m2
11:39 49.8 °F 42.6 °F 29.57 in WSW 7.4 mph 16 mph 76% 0.00 in 181 W/m2
11:44 49.8 °F 42.6 °F 29.57 in WSW 17 mph 22 mph 76% 0.00 in 90 W/m2
11:49 49.8 °F 42.6 °F 29.57 in WSW 14.8 mph 23 mph 76% 0.00 in 40 W/m2
11:54 49.6 °F 42.3 °F 29.57 in WSW 12.9 mph 23 mph 75.8% 0.00 in 60 W/m2
11:59 49.6 °F 42.1 °F 29.57 in SW 14.2 mph 28 mph 75% 0.00 in 186 W/m2
12:04 49.6 °F 41.6 °F 29.57 in WSW 13 mph 28 mph 73.6% 0.00 in 186 W/m2
12:09 49.8 °F 41.4 °F 29.56 in West 9 mph 28 mph 72.6% 0.00 in 185 W/m2
12:14 49.8 °F 41.2 °F 29.56 in West 8.6 mph 19 mph 72% 0.00 in 44 W/m2
12:19 49.6 °F 41.1 °F 29.56 in West 10 mph 21 mph 72.2% 0.00 in 74 W/m2
12:24 49.6 °F 41.3 °F 29.55 in WSW 6.8 mph 14 mph 73% 0.00 in 79 W/m2
12:29 49.5 °F 41.5 °F 29.55 in WSW 7.3 mph 19 mph 74% 0.00 in 33 W/m2
12:34 49.5 °F 42.1 °F 29.55 in WSW 9.2 mph 15 mph 75.4% 0.00 in 111 W/m2
12:39 49.3 °F 42.3 °F 29.55 in WSW 9.2 mph 18 mph 76.8% 0.00 in 97 W/m2
12:44 49.4 °F 42.5 °F 29.55 in WSW 14 mph 30 mph 77% 0.00 in 118 W/m2
12:49 49.5 °F 42.3 °F 29.55 in WSW 7.8 mph 30 mph 76% 0.00 in 137 W/m2
12:54 49.6 °F 42.4 °F 29.55 in WSW 10 mph 23 mph 76% 0.00 in 135 W/m2
12:59 49.6 °F 42.4 °F 29.54 in WSW 10 mph 20 mph 76% 0.00 in 125 W/m2
13:04 49.6 °F 42.2 °F 29.54 in West 12.8 mph 21 mph 75.4% 0.00 in 105 W/m2
13:09 49.6 °F 42.3 °F 29.54 in WSW 10.1 mph 18 mph 75.6% 0.00 in 67 W/m2
13:14 49.5 °F 42.3 °F 29.54 in WSW 11 mph 19 mph 76% 0.00 in 54 W/m2
13:19 49.5 °F 42.3 °F 29.53 in WSW 9.6 mph 18 mph 76% 0.00 in 44 W/m2
13:24 49.5 °F 42.1 °F 29.55 in WSW 13.6 mph 29 mph 75.6% 0.00 in 14 W/m2
13:29 47.3 °F 40.7 °F 29.56 in West 12.6 mph 35 mph 77.6% 0.02 in 18 W/m2
13:34 45.6 °F 38.9 °F 29.54 in SW 16.4 mph 32 mph 77.2% 0.02 in 28 W/m2
13:39 45.1 °F 38.4 °F 29.54 in WSW 11.8 mph 24 mph 77.2% 0.02 in 69 W/m2
13:44 45.1 °F 38.7 °F 29.53 in West 11.4 mph 22 mph 78% 0.02 in 88 W/m2
13:49 45.3 °F 38.8 °F 29.53 in WSW 9.4 mph 18 mph 78% 0.02 in 93 W/m2
13:54 45.8 °F 39.3 °F 29.53 in West 9.8 mph 14 mph 78% 0.02 in 213 W/m2
13:59 46.6 °F 39.9 °F 29.52 in WSW 11.6 mph 22 mph 77.4% 0.02 in 200 W/m2
14:04 46.8 °F 40 °F 29.52 in West 9.3 mph 20 mph 77.2% 0.02 in 139 W/m2
14:09 46.8 °F 40.3 °F 29.52 in WSW 13.1 mph 21 mph 78% 0.02 in 118 W/m2
14:14 46.8 °F 40.3 °F 29.51 in West 11 mph 24 mph 78% 0.02 in 105 W/m2
14:19 46.6 °F 40.4 °F 29.51 in WSW 10.8 mph 22 mph 78.8% 0.02 in 42 W/m2
14:24 46.2 °F 40.1 °F 29.52 in SW 12 mph 23 mph 79% 0.02 in 56 W/m2
14:29 46 °F 40.3 °F 29.51 in WSW 15 mph 21 mph 80% 0.01 in 70 W/m2
14:34 45.9 °F 40.3 °F 29.51 in WSW 11.2 mph 21 mph 81% 0.00 in 60 W/m2
14:39 45.7 °F 40.3 °F 29.51 in WSW 10.4 mph 21 mph 81.6% 0.00 in 32 W/m2
14:44 45.4 °F 40.6 °F 29.51 in West 7 mph 17 mph 83% 0.00 in 37 W/m2
14:49 45.5 °F 41 °F 29.50 in WSW 10.2 mph 16 mph 84% 0.00 in 53 W/m2
14:54 45.8 °F 41.3 °F 29.50 in WSW 11 mph 19 mph 84% 0.00 in 79 W/m2
14:59 45.9 °F 41.3 °F 29.50 in WSW 14 mph 21 mph 83.5% 0.00 in 42 W/m2
15:04 45.9 °F 41.2 °F 29.50 in SW 13.4 mph 21 mph 83.6% 0.00 in 23 W/m2
15:09 45.8 °F 41.3 °F 29.50 in SW 11.2 mph 23 mph 84% 0.02 in 21 W/m2
15:14 45.5 °F 41.1 °F 29.50 in West 7.8 mph 24 mph 84.4% 0.02 in 19 W/m2
15:19 45.3 °F 41 °F 29.50 in WSW 9.5 mph 24 mph 85% 0.02 in 37 W/m2
15:24 45.6 °F 41.6 °F 29.50 in WSW 8.4 mph 21 mph 85.8% 0.02 in 40 W/m2
15:29 45.8 °F 41.5 °F 29.50 in WSW 9.2 mph 17 mph 85% 0.02 in 69 W/m2
15:34 45.9 °F 41.5 °F 29.49 in WSW 10 mph 16 mph 85% 0.02 in 35 W/m2
15:39 46 °F 41.5 °F 29.49 in WSW 9.1 mph 17 mph 84.4% 0.02 in 25 W/m2
15:44 46.1 °F 41.5 °F 29.50 in WSW 7 mph 17 mph 83.8% 0.02 in 14 W/m2
15:49 46.2 °F 41.4 °F 29.50 in West 8.2 mph 17 mph 83% 0.02 in 0 W/m2
15:54 46.2 °F 41 °F 29.50 in WSW 8.8 mph 14 mph 82% 0.02 in 0 W/m2
15:59 46 °F 40.6 °F 29.51 in WSW 16.6 mph 35 mph 81.8% 0.02 in 0 W/m2
16:04 45 °F 39.8 °F 29.50 in WSW 13 mph 27 mph 82.2% 0.03 in 0 W/m2
16:09 44.5 °F 39.8 °F 29.50 in West 8.8 mph 20 mph 83.6% 0.03 in 0 W/m2
16:14 44.2 °F 39.9 °F 29.51 in West 15.2 mph 23 mph 84.6% 0.03 in 0 W/m2
16:19 43.5 °F 39.5 °F 29.49 in WSW 8 mph 25 mph 85.4% 0.04 in 0 W/m2
16:24 43.3 °F 39.5 °F 29.49 in WSW 9 mph 14 mph 86.2% 0.05 in 0 W/m2
16:29 43.3 °F 39.7 °F 29.49 in WSW 6.7 mph 13 mph 87% 0.05 in 0 W/m2
16:34 43.3 °F 39.7 °F 29.48 in WSW 5.6 mph 14 mph 87% 0.05 in 0 W/m2
16:39 43.4 °F 39.8 °F 29.48 in West 4.4 mph 13 mph 87% 0.05 in 0 W/m2
16:44 43.5 °F 39.9 °F 29.48 in WSW 6.4 mph 11 mph 87% 0.05 in 0 W/m2
16:49 43.8 °F 40.3 °F 29.48 in SW 3.7 mph 10 mph 87% 0.05 in 0 W/m2
16:54 44 °F 40.4 °F 29.48 in WSW 7.8 mph 14 mph 87% 0.05 in 0 W/m2
16:59 44.3 °F 40.7 °F 29.48 in WSW 8.6 mph 14 mph 87% 0.05 in 0 W/m2
17:04 44.7 °F 40.9 °F 29.47 in WSW 11 mph 20 mph 86.6% 0.03 in 0 W/m2
17:09 44.8 °F 40.8 °F 29.48 in WSW 8.4 mph 14 mph 86% 0.03 in 0 W/m2
17:14 45 °F 40.7 °F 29.47 in West 12.6 mph 21 mph 85.2% 0.02 in 0 W/m2
17:19 45 °F 40.6 °F 29.47 in SW 8.8 mph 20 mph 85% 0.01 in 0 W/m2
17:24 45.1 °F 40.6 °F 29.47 in SW 10.4 mph 21 mph 84% 0.01 in 0 W/m2
17:29 45.1 °F 40.6 °F 29.47 in SW 10.3 mph 16 mph 84% 0.00 in 0 W/m2
17:34 45.1 °F 40.4 °F 29.47 in SW 10.7 mph 17 mph 83.2% 0.00 in 0 W/m2
17:39 45.3 °F 40.5 °F 29.47 in WSW 10.8 mph 19 mph 83% 0.00 in 0 W/m2
17:44 45.4 °F 40.2 °F 29.47 in SW 16.2 mph 27 mph 82% 0.00 in 0 W/m2
17:49 45.7 °F 40.1 °F 29.46 in WSW 12.1 mph 19 mph 81% 0.00 in 0 W/m2
17:54 45.7 °F 39.9 °F 29.46 in WSW 14 mph 22 mph 80.2% 0.00 in 0 W/m2
17:59 45.7 °F 39.9 °F 29.46 in WSW 12.5 mph 22 mph 80% 0.00 in 0 W/m2
18:04 45.6 °F 39.8 °F 29.46 in SW 11.4 mph 20 mph 80% 0.00 in 0 W/m2
18:09 45.4 °F 39.4 °F 29.46 in WSW 13.6 mph 25 mph 79.4% 0.00 in 0 W/m2
18:13 45.3 °F 39.2 °F 29.45 in WSW 9 mph 22 mph 79% 0.00 in 0 W/m2
18:19 45.2 °F 39.1 °F 29.45 in SW 11.2 mph 18 mph 79% 0.00 in 0 W/m2
18:24 45.1 °F 39 °F 29.45 in SW 10.6 mph 20 mph 79% 0.00 in 0 W/m2
18:29 45 °F 38.8 °F 29.45 in WSW 11.6 mph 18 mph 79% 0.00 in 0 W/m2
18:34 44.7 °F 38.9 °F 29.45 in WSW 8.4 mph 18 mph 79.8% 0.00 in 0 W/m2
18:39 44.4 °F 38.8 °F 29.44 in SW 5.6 mph 13 mph 80.6% 0.00 in 0 W/m2
18:44 44.1 °F 38.8 °F 29.44 in SW 7.8 mph 15 mph 81.4% 0.00 in 0 W/m2
18:49 43.9 °F 38.8 °F 29.44 in SW 9.2 mph 14 mph 82.2% 0.00 in 0 W/m2
18:54 43.7 °F 38.8 °F 29.44 in SSW 9.8 mph 18 mph 83% 0.00 in 0 W/m2
18:59 43.5 °F 38.8 °F 29.44 in SW 7.4 mph 21 mph 83.4% 0.00 in 0 W/m2
19:04 43.5 °F 38.9 °F 29.44 in SW 8.5 mph 14 mph 83.8% 0.00 in 0 W/m2
19:09 43.5 °F 39 °F 29.44 in SW 11.2 mph 15 mph 84% 0.00 in 0 W/m2
19:14 43.3 °F 39.2 °F 29.44 in SW 7.7 mph 18 mph 84.8% 0.00 in 0 W/m2
19:19 43.3 °F 39.3 °F 29.43 in WSW 13.4 mph 18 mph 85.6% 0.00 in 0 W/m2
19:24 43.3 °F 39.4 °F 29.43 in SW 8.8 mph 19 mph 86% 0.00 in 0 W/m2
19:29 43.2 °F 39.3 °F 29.42 in SW 6.8 mph 12 mph 86% 0.00 in 0 W/m2
19:33 43.3 °F 39.3 °F 29.42 in SW 7.9 mph 16 mph 86% 0.00 in 0 W/m2
19:39 43.4 °F 39.5 °F 29.42 in WSW 7.6 mph 17 mph 86% 0.00 in 0 W/m2
19:44 43.6 °F 39.5 °F 29.42 in SW 6 mph 14 mph 85% 0.01 in 0 W/m2
19:49 43.9 °F 39.7 °F 29.41 in SSW 10.4 mph 18 mph 85% 0.01 in 0 W/m2
19:54 43.9 °F 39.7 °F 29.41 in SW 9.6 mph 18 mph 85% 0.01 in 0 W/m2
19:59 43.7 °F 39.7 °F 29.42 in SSW 13.7 mph 23 mph 85.4% 0.02 in 0 W/m2
20:04 43.5 °F 39.6 °F 29.42 in SW 11.5 mph 23 mph 86% 0.03 in 0 W/m2
20:09 43.3 °F 39.6 °F 29.41 in SW 7.6 mph 20 mph 86.8% 0.04 in 0 W/m2
20:14 43.2 °F 39.6 °F 29.41 in SW 9 mph 16 mph 87% 0.04 in 0 W/m2
20:19 43.2 °F 39.7 °F 29.40 in SW 6.6 mph 16 mph 87.6% 0.04 in 0 W/m2
20:24 43.2 °F 39.9 °F 29.39 in SW 7.3 mph 14 mph 88% 0.04 in 0 W/m2
20:29 43.2 °F 39.9 °F 29.39 in SSW 6.1 mph 14 mph 88% 0.04 in 0 W/m2
20:34 43 °F 39.7 °F 29.39 in SW 7.8 mph 18 mph 88% 0.04 in 0 W/m2
20:39 43 °F 39.7 °F 29.38 in SW 4.9 mph 11 mph 88% 0.04 in 0 W/m2
20:44 42.9 °F 39.7 °F 29.37 in SW 7.6 mph 13 mph 88% 0.04 in 0 W/m2
20:49 43.1 °F 39.8 °F 29.37 in SW 6.5 mph 13 mph 88% 0.04 in 0 W/m2
20:54 43.2 °F 39.9 °F 29.37 in SSW 4.7 mph 18 mph 88% 0.04 in 0 W/m2
20:59 43.2 °F 39.9 °F 29.36 in SW 8.4 mph 15 mph 88% 0.05 in 0 W/m2
21:04 43.1 °F 39.8 °F 29.36 in SSW 7.9 mph 17 mph 88% 0.04 in 0 W/m2
21:09 43 °F 39.7 °F 29.36 in SW 7.6 mph 16 mph 88% 0.05 in 0 W/m2
21:14 42.8 °F 39.6 °F 29.35 in SW 9.6 mph 17 mph 88% 0.07 in 0 W/m2
21:19 42.8 °F 39.6 °F 29.34 in SW 4.8 mph 11 mph 88.2% 0.07 in 0 W/m2
21:24 42.7 °F 39.6 °F 29.33 in SSW 3.3 mph 7 mph 88.8% 0.08 in 0 W/m2
21:29 42.8 °F 39.7 °F 29.32 in SSW 3.6 mph 7 mph 89% 0.08 in 0 W/m2
21:34 42.8 °F 39.7 °F 29.32 in SSW 4.5 mph 9 mph 89% 0.09 in 0 W/m2
21:39 43 °F 39.9 °F 29.31 in SSW 5.4 mph 12 mph 89% 0.09 in 0 W/m2
21:44 43 °F 40.2 °F 29.31 in South 6 mph 12 mph 89.8% 0.10 in 0 W/m2
21:49 43.1 °F 40.4 °F 29.29 in SSW 6.2 mph 14 mph 90% 0.11 in 0 W/m2
21:54 43.3 °F 40.6 °F 29.28 in South 5.2 mph 14 mph 90% 0.10 in 0 W/m2
21:59 43.3 °F 40.6 °F 29.28 in SSW 5.5 mph 12 mph 90% 0.10 in 0 W/m2
22:04 43.5 °F 40.8 °F 29.27 in SSW 10.6 mph 17 mph 90% 0.09 in 0 W/m2
22:09 43.5 °F 40.8 °F 29.26 in SSW 7.4 mph 16 mph 90% 0.08 in 0 W/m2
22:14 43.5 °F 40.8 °F 29.26 in SW 6.2 mph 15 mph 90% 0.08 in 0 W/m2
22:19 43.6 °F 41 °F 29.25 in SSW 9.8 mph 17 mph 90.6% 0.09 in 0 W/m2
22:24 43.9 °F 41.4 °F 29.25 in SW 4.7 mph 17 mph 91% 0.09 in 0 W/m2
22:29 44 °F 41.5 °F 29.25 in SW 7.8 mph 15 mph 91% 0.12 in 0 W/m2
22:34 44.2 °F 41.6 °F 29.24 in SW 13.4 mph 28 mph 91% 0.13 in 0 W/m2
22:39 45.1 °F 42.7 °F 29.24 in WSW 13 mph 27 mph 91.5% 0.13 in 0 W/m2
22:44 45.6 °F 43.1 °F 29.24 in WSW 10 mph 22 mph 91.2% 0.12 in 0 W/m2
22:49 46 °F 43.8 °F 29.25 in West 11.2 mph 23 mph 92% 0.11 in 0 W/m2
22:54 46.2 °F 44 °F 29.26 in West 14.8 mph 25 mph 91.6% 0.10 in 0 W/m2
22:59 46.6 °F 44.4 °F 29.26 in West 11.5 mph 23 mph 92% 0.10 in 0 W/m2
23:04 46.6 °F 44.2 °F 29.27 in West 10.6 mph 21 mph 91.2% 0.09 in 0 W/m2
23:09 46.7 °F 44.2 °F 29.28 in West 12.6 mph 21 mph 91% 0.09 in 0 W/m2
23:14 46.8 °F 44.2 °F 29.28 in West 17.9 mph 33 mph 90.8% 0.08 in 0 W/m2
23:19 46.8 °F 44 °F 29.29 in West 12.2 mph 28 mph 89.6% 0.06 in 0 W/m2
23:24 46.8 °F 43.5 °F 29.30 in West 17 mph 33 mph 88.6% 0.05 in 0 W/m2
23:29 46.8 °F 43.3 °F 29.30 in West 13.2 mph 26 mph 87.2% 0.02 in 0 W/m2
23:33 46.8 °F 42.9 °F 29.31 in WNW 9.7 mph 26 mph 86.3% 0.01 in 0 W/m2
23:39 46.8 °F 42.8 °F 29.31 in West 13.4 mph 21 mph 86% 0.00 in 0 W/m2
23:44 46.6 °F 42.6 °F 29.31 in West 8.7 mph 20 mph 86% 0.00 in 0 W/m2
23:49 46.6 °F 42.4 °F 29.32 in West 10.2 mph 22 mph 85.4% 0.00 in 0 W/m2
23:54 46.4 °F 42.1 °F 29.32 in West 11.2 mph 21 mph 85% 0.00 in 0 W/m2
23:59 46.4 °F 42.1 °F 29.32 in West 13.5 mph 23 mph 85% 0.00 in 0 W/m2
Bath Spa Weather
Compliments of Weather Underground - 2 mb